createdAt,value
2018-05-05T00:00:10.982Z,11.50
2018-05-05T00:02:42.948Z,13.60
2018-05-05T00:05:14.033Z,11.40
2018-05-05T00:07:44.143Z,11.40
2018-05-05T00:10:15.412Z,11.40
2018-05-05T00:12:45.407Z,10.90
2018-05-05T00:15:15.503Z,12.00
2018-05-05T00:17:46.588Z,11.30
2018-05-05T00:20:16.693Z,11.20
2018-05-05T00:22:47.427Z,11.20
2018-05-05T00:25:17.909Z,11.20
2018-05-05T00:27:48.774Z,11.30
2018-05-05T00:30:18.761Z,11.30
2018-05-05T00:32:49.445Z,11.40
2018-05-05T00:35:19.447Z,12.40
2018-05-05T00:37:49.859Z,11.40
2018-05-05T00:40:20.381Z,9.80
2018-05-05T00:42:51.016Z,11.20
2018-05-05T00:45:22.007Z,11.30
2018-05-05T00:47:52.085Z,11.20
2018-05-05T00:50:23.169Z,11.30
2018-05-05T00:52:53.580Z,11.10
2018-05-05T00:55:24.599Z,11.00
2018-05-05T00:57:54.399Z,10.90
2018-05-05T01:00:25.775Z,11.10
2018-05-05T01:02:55.865Z,11.00
2018-05-05T01:05:27.762Z,10.90
2018-05-05T01:07:58.191Z,10.90
2018-05-05T01:10:29.099Z,10.90
2018-05-05T01:12:59.150Z,10.80
2018-05-05T01:15:28.985Z,10.70
2018-05-05T01:17:58.912Z,10.70
2018-05-05T01:20:29.210Z,10.80
2018-05-05T01:23:00.051Z,10.70
2018-05-05T01:25:35.584Z,10.60
2018-05-05T01:28:05.852Z,10.60
2018-05-05T01:30:36.664Z,10.30
2018-05-05T01:33:06.724Z,10.30
2018-05-05T01:35:37.065Z,10.30
2018-05-05T01:38:07.105Z,10.30
2018-05-05T01:40:37.747Z,10.30
2018-05-05T01:43:07.977Z,10.40
2018-05-05T01:45:42.638Z,10.40
2018-05-05T01:48:13.056Z,10.40
2018-05-05T01:50:43.047Z,10.30
2018-05-05T01:53:12.902Z,10.30
2018-05-05T01:55:43.501Z,10.30
2018-05-05T02:00:51.299Z,10.30
2018-05-05T02:03:22.559Z,10.20
2018-05-05T02:05:52.837Z,10.30
2018-05-05T02:08:23.489Z,10.30
2018-05-05T02:10:53.730Z,12.20
2018-05-05T02:13:23.828Z,10.30
2018-05-05T02:15:53.792Z,10.30
2018-05-05T02:18:23.953Z,10.10
2018-05-05T02:20:54.350Z,10.10
2018-05-05T02:23:25.333Z,10.10
2018-05-05T02:25:55.395Z,10.10
2018-05-05T02:28:25.786Z,10.10
2018-05-05T02:30:56.025Z,10.10
2018-05-05T02:33:25.947Z,10.10
2018-05-05T02:35:56.480Z,10.10
2018-05-05T02:38:27.120Z,10.00
2018-05-05T02:40:57.163Z,10.00
2018-05-05T02:43:28.423Z,9.90
2018-05-05T02:45:58.498Z,9.90
2018-05-05T02:48:28.807Z,9.90
2018-05-05T02:50:59.047Z,9.80
2018-05-05T02:53:29.015Z,9.70
2018-05-05T02:55:59.197Z,9.80
2018-05-05T02:58:30.461Z,9.80
2018-05-05T03:01:00.615Z,9.80
2018-05-05T03:03:30.865Z,9.70
2018-05-05T03:06:01.038Z,9.80
2018-05-05T03:08:31.121Z,8.70
2018-05-05T03:11:02.314Z,9.60
2018-05-05T03:13:32.581Z,9.50
2018-05-05T03:16:03.651Z,9.80
2018-05-05T03:18:34.270Z,9.70
2018-05-05T03:21:05.018Z,9.70
2018-05-05T03:23:35.108Z,9.60
2018-05-05T03:26:06.439Z,9.50
2018-05-05T03:28:37.190Z,9.50
2018-05-05T03:31:08.751Z,9.40
2018-05-05T03:33:40.170Z,9.50
2018-05-05T03:36:11.060Z,9.50
2018-05-05T03:38:41.003Z,9.50
2018-05-05T03:41:11.267Z,9.50
2018-05-05T03:43:41.639Z,9.40
2018-05-05T03:46:11.696Z,9.40
2018-05-05T03:48:42.603Z,9.40
2018-05-05T03:51:16.778Z,9.50
2018-05-05T03:53:46.927Z,9.40
2018-05-05T03:56:16.746Z,9.10
2018-05-05T03:58:47.449Z,9.20
2018-05-05T04:03:34.561Z,9.20
2018-05-05T04:06:04.734Z,9.20
2018-05-05T04:08:35.608Z,10.00
2018-05-05T04:11:05.886Z,8.90
2018-05-05T04:13:36.084Z,8.80
2018-05-05T04:16:06.277Z,8.90
2018-05-05T04:18:36.999Z,8.80
2018-05-05T04:21:07.880Z,8.90
2018-05-05T04:23:37.948Z,8.90
2018-05-05T04:26:08.038Z,9.10
2018-05-05T04:28:38.871Z,9.30
2018-05-05T04:31:08.943Z,9.30
2018-05-05T04:33:39.268Z,9.40
2018-05-05T04:36:10.182Z,9.30
2018-05-05T04:38:41.220Z,9.30
2018-05-05T04:41:11.548Z,9.30
2018-05-05T04:43:41.700Z,9.40
2018-05-05T04:46:11.834Z,9.50
2018-05-05T04:48:42.317Z,9.70
2018-05-05T04:51:12.666Z,9.70
2018-05-05T04:53:42.559Z,9.50
2018-05-05T04:56:12.988Z,9.30
2018-05-05T04:58:43.952Z,9.50
2018-05-05T05:01:15.936Z,9.60
2018-05-05T05:03:46.611Z,9.70
2018-05-05T05:06:16.919Z,9.70
2018-05-05T05:08:47.388Z,9.70
2018-05-05T05:11:17.585Z,9.70
2018-05-05T05:13:47.448Z,9.60
2018-05-05T05:16:18.329Z,9.70
2018-05-05T05:18:48.383Z,9.70
2018-05-05T05:21:18.725Z,9.90
2018-05-05T05:23:50.598Z,12.40
2018-05-05T05:26:20.756Z,12.40
2018-05-05T05:28:51.149Z,13.70
2018-05-05T05:31:21.518Z,14.60
2018-05-05T05:33:51.706Z,16.10
2018-05-05T05:36:22.585Z,17.90
2018-05-05T05:38:53.615Z,17.70
2018-05-05T05:41:24.063Z,17.70
2018-05-05T05:43:54.360Z,18.80
2018-05-05T05:46:25.863Z,18.40
2018-05-05T05:48:57.250Z,18.30
2018-05-05T05:51:27.434Z,18.30
2018-05-05T05:53:59.906Z,19.20
2018-05-05T05:56:31.006Z,20.00
2018-05-05T05:59:01.080Z,20.00
2018-05-05T06:01:32.146Z,19.80
2018-05-05T06:04:02.295Z,21.10
2018-05-05T06:06:32.677Z,19.60
2018-05-05T06:09:03.254Z,19.60
2018-05-05T06:11:34.496Z,19.20
2018-05-05T06:14:04.863Z,19.20
2018-05-05T06:16:35.963Z,17.70
2018-05-05T06:19:06.335Z,17.70
2018-05-05T06:21:37.582Z,16.10
2018-05-05T06:24:08.710Z,15.40
2018-05-05T06:26:39.982Z,14.70
2018-05-05T06:29:09.913Z,14.60
2018-05-05T06:31:40.466Z,14.10
2018-05-05T06:34:11.036Z,13.70
2018-05-05T06:36:41.846Z,13.30
2018-05-05T06:39:12.013Z,13.30
2018-05-05T06:41:42.305Z,12.70
2018-05-05T06:44:12.407Z,12.30
2018-05-05T06:46:43.305Z,12.20
2018-05-05T06:49:13.813Z,12.50
2018-05-05T06:51:44.869Z,12.30
2018-05-05T06:54:15.839Z,12.30
2018-05-05T06:56:45.950Z,12.30
2018-05-05T06:59:16.077Z,11.80
2018-05-05T07:01:45.954Z,11.50
2018-05-05T07:04:15.883Z,11.30
2018-05-05T07:06:46.860Z,11.30
2018-05-05T07:09:17.701Z,11.40
2018-05-05T07:11:48.023Z,11.60
2018-05-05T07:14:18.702Z,11.80
2018-05-05T07:16:48.686Z,11.90
2018-05-05T07:19:18.718Z,11.80
2018-05-05T07:21:50.089Z,12.00
2018-05-05T07:24:20.724Z,12.20
2018-05-05T07:26:50.886Z,12.40
2018-05-05T07:29:21.021Z,12.20
2018-05-05T07:31:51.924Z,12.80
2018-05-05T07:34:22.543Z,12.80
2018-05-05T07:36:53.040Z,13.20
2018-05-05T07:39:24.137Z,14.40
2018-05-05T07:41:54.177Z,13.50
2018-05-05T07:44:24.627Z,13.70
2018-05-05T07:46:55.876Z,13.90
2018-05-05T07:49:27.906Z,14.00
2018-05-05T07:51:59.665Z,14.00
2018-05-05T07:54:34.003Z,13.90
2018-05-05T07:57:04.303Z,14.30
2018-05-05T07:59:36.076Z,14.40
2018-05-05T08:02:06.789Z,15.40
2018-05-05T08:04:37.215Z,14.40
2018-05-05T08:07:07.731Z,14.40
2018-05-05T08:09:38.242Z,14.50
2018-05-05T08:12:08.374Z,14.60
2018-05-05T08:14:38.905Z,14.80
2018-05-05T08:17:11.845Z,14.80
2018-05-05T08:19:44.348Z,14.80
2018-05-05T08:22:15.325Z,14.80
2018-05-05T08:24:46.275Z,14.90
2018-05-05T08:27:16.631Z,15.20
2018-05-05T08:29:47.725Z,15.40
2018-05-05T08:32:18.530Z,15.30
2018-05-05T08:34:48.562Z,15.30
2018-05-05T08:37:19.178Z,15.20
2018-05-05T08:39:50.607Z,15.50
2018-05-05T08:42:20.895Z,15.80
2018-05-05T08:44:51.475Z,16.00
2018-05-05T08:47:22.022Z,16.00
2018-05-05T08:49:52.501Z,16.00
2018-05-05T08:52:22.741Z,16.40
2018-05-05T08:54:53.634Z,15.50
2018-05-05T08:57:24.057Z,15.40
2018-05-05T08:59:54.313Z,15.40
2018-05-05T09:02:25.579Z,15.80
2018-05-05T09:04:55.900Z,15.80
2018-05-05T09:07:27.229Z,16.30
2018-05-05T09:09:57.295Z,16.30
2018-05-05T09:12:27.438Z,16.40
2018-05-05T09:14:57.691Z,16.50
2018-05-05T09:17:27.611Z,16.60
2018-05-05T09:20:02.004Z,16.70
2018-05-05T09:22:31.979Z,17.60
2018-05-05T09:25:02.976Z,16.90
2018-05-05T09:27:33.449Z,16.80
2018-05-05T09:30:03.665Z,16.70
2018-05-05T09:32:34.886Z,16.70
2018-05-05T09:35:05.542Z,16.70
2018-05-05T09:37:35.791Z,16.90
2018-05-05T09:40:07.117Z,17.10
2018-05-05T09:42:37.793Z,17.10
2018-05-05T09:45:08.573Z,17.20
2018-05-05T09:47:38.887Z,17.30
2018-05-05T09:50:09.041Z,17.20
2018-05-05T09:52:39.276Z,17.40
2018-05-05T09:55:09.665Z,17.20
2018-05-05T09:57:40.405Z,17.30
2018-05-05T10:00:10.668Z,17.30
2018-05-05T10:02:40.890Z,17.30
2018-05-05T10:05:11.273Z,17.40
2018-05-05T10:07:42.725Z,17.40
2018-05-05T10:10:12.753Z,17.40
2018-05-05T10:12:44.238Z,17.40
2018-05-05T10:15:19.307Z,17.40
2018-05-05T10:17:50.321Z,17.40
2018-05-05T10:20:21.008Z,17.40
2018-05-05T10:22:51.144Z,17.40
2018-05-05T10:25:21.699Z,17.50
2018-05-05T10:27:52.201Z,17.50
2018-05-05T10:30:22.563Z,17.70
2018-05-05T10:32:52.932Z,17.60
2018-05-05T10:35:23.950Z,17.60
2018-05-05T10:37:53.937Z,17.60
2018-05-05T10:40:24.202Z,17.80
2018-05-05T10:42:55.761Z,18.10
2018-05-05T10:45:26.787Z,18.20
2018-05-05T10:47:57.887Z,18.40
2018-05-05T10:50:28.499Z,18.30
2018-05-05T10:52:58.623Z,18.40
2018-05-05T10:55:29.678Z,18.40
2018-05-05T10:57:59.954Z,18.60
2018-05-05T11:00:31.228Z,18.60
2018-05-05T11:03:02.606Z,18.60
2018-05-05T11:05:33.132Z,18.40
2018-05-05T11:08:03.140Z,18.40
2018-05-05T11:10:33.675Z,18.40
2018-05-05T11:13:04.345Z,18.50
2018-05-05T11:15:35.823Z,19.00
2018-05-05T11:18:05.942Z,19.00
2018-05-05T11:20:36.281Z,18.80
2018-05-05T11:23:06.720Z,18.90
2018-05-05T11:25:37.145Z,18.90
2018-05-05T11:28:07.272Z,19.00
2018-05-05T11:30:37.956Z,19.10
2018-05-05T11:33:10.615Z,19.00
2018-05-05T11:35:41.624Z,20.00
2018-05-05T11:38:11.835Z,18.90
2018-05-05T11:40:42.075Z,18.90
2018-05-05T11:43:12.604Z,17.80
2018-05-05T11:45:42.984Z,19.40
2018-05-05T11:48:13.689Z,19.50
2018-05-05T11:50:44.108Z,19.50
2018-05-05T11:53:14.360Z,19.50
2018-05-05T11:55:45.458Z,19.80
2018-05-05T11:58:15.631Z,20.50
2018-05-05T12:00:47.182Z,19.90
2018-05-05T12:03:18.708Z,20.10
2018-05-05T12:05:48.736Z,20.10
2018-05-05T12:08:19.826Z,19.20
2018-05-05T12:10:49.804Z,20.10
2018-05-05T12:13:20.314Z,20.10
2018-05-05T12:15:50.634Z,20.30
2018-05-05T12:18:22.333Z,20.30
2018-05-05T12:20:53.063Z,19.70
2018-05-05T12:23:24.338Z,20.30
2018-05-05T12:25:54.910Z,20.30
2018-05-05T12:28:25.489Z,20.40
2018-05-05T12:30:56.985Z,20.40
2018-05-05T12:33:27.079Z,20.60
2018-05-05T12:35:58.722Z,20.50
2018-05-05T12:38:29.017Z,20.70
2018-05-05T12:41:00.135Z,20.80
2018-05-05T12:43:30.745Z,20.70
2018-05-05T12:46:02.460Z,20.60
2018-05-05T12:48:33.855Z,20.60
2018-05-05T12:51:05.154Z,20.90
2018-05-05T12:53:36.562Z,20.90
2018-05-05T12:56:07.035Z,20.90
2018-05-05T12:58:37.940Z,21.20
2018-05-05T13:01:10.207Z,21.30
2018-05-05T13:03:41.451Z,21.20
2018-05-05T13:06:11.731Z,21.20
2018-05-05T13:08:42.216Z,20.90
2018-05-05T13:11:13.507Z,20.90
2018-05-05T13:13:44.510Z,21.00
2018-05-05T13:16:15.393Z,21.10
2018-05-05T13:18:46.498Z,21.20
2018-05-05T13:21:23.352Z,21.10
2018-05-05T13:23:58.549Z,21.10
2018-05-05T13:26:35.161Z,21.30
2018-05-05T13:29:06.217Z,21.60
2018-05-05T13:31:36.790Z,21.60
2018-05-05T13:34:07.357Z,21.50
2018-05-05T13:36:38.212Z,21.50
2018-05-05T13:39:09.135Z,21.50
2018-05-05T13:41:40.046Z,21.30
2018-05-05T13:44:10.671Z,21.20
2018-05-05T13:46:41.516Z,21.40
2018-05-05T13:49:13.069Z,21.30
2018-05-05T13:51:44.091Z,21.30
2018-05-05T13:54:14.618Z,20.10
2018-05-05T13:56:45.552Z,21.20
2018-05-05T13:59:16.060Z,21.10
2018-05-05T14:01:47.331Z,21.10
2018-05-05T14:04:18.191Z,21.10
2018-05-05T14:06:48.383Z,21.10
2018-05-05T14:09:21.143Z,21.50
2018-05-05T14:11:51.857Z,21.50
2018-05-05T14:14:22.101Z,21.50
2018-05-05T14:16:54.089Z,21.60
2018-05-05T14:19:26.170Z,21.60
2018-05-05T14:21:56.575Z,21.60
2018-05-05T14:24:26.867Z,21.50
2018-05-05T14:26:57.863Z,21.60
2018-05-05T14:29:28.545Z,21.60
2018-05-05T14:31:59.822Z,21.60
2018-05-05T14:34:31.067Z,21.90
2018-05-05T14:37:02.016Z,23.00
